createdAt,value
2019-03-05T09:48:00.342Z,69.95
2019-03-05T10:19:38.510Z,65.08
2019-03-05T12:32:57.903Z,48.19
2019-03-05T13:05:43.241Z,57.00
2019-03-05T13:10:48.535Z,60.19
2019-03-05T13:21:03.517Z,59.37
2019-03-05T13:37:08.096Z,59.44
2019-03-05T13:42:13.495Z,60.31
2019-03-05T13:47:18.965Z,59.94
2019-03-05T14:49:28.822Z,29.50
2019-03-05T14:50:22.100Z,42.46
2019-03-05T14:50:47.303Z,46.88
2019-03-05T14:51:12.578Z,51.74
2019-03-05T14:51:37.761Z,55.92
2019-03-05T14:52:03.110Z,58.74
2019-03-05T14:52:28.317Z,60.52
2019-03-05T14:57:45.883Z,62.82
2019-03-05T15:02:49.210Z,66.46
2019-03-05T15:07:51.781Z,67.78
2019-03-05T15:12:54.098Z,63.69
2019-03-05T15:53:30.150Z,60.71
2019-03-05T15:58:35.421Z,61.28
2019-03-05T16:03:40.719Z,60.53
2019-03-05T16:08:47.007Z,60.63
2019-03-05T16:13:56.474Z,61.28
2019-03-05T16:19:00.612Z,60.71
2019-03-05T16:24:05.931Z,61.60
2019-03-05T16:29:11.477Z,61.51
2019-03-05T16:34:31.210Z,61.89
2019-03-05T16:39:55.832Z,62.71
2019-03-05T16:45:18.656Z,63.59
2019-03-05T16:50:32.394Z,63.93
2019-03-05T16:55:55.086Z,64.18
2019-03-05T17:01:22.121Z,64.46
2019-03-05T17:06:58.689Z,65.30
2019-03-05T17:12:04.596Z,66.29
2019-03-05T17:17:09.989Z,66.93
2019-03-05T17:22:15.340Z,67.23
2019-03-05T17:27:21.324Z,68.01
2019-03-05T17:32:26.763Z,68.27
2019-03-05T17:37:32.140Z,69.11
2019-03-05T17:42:38.701Z,69.19
2019-03-05T17:47:45.619Z,69.29
2019-03-05T17:52:52.258Z,69.73
2019-03-05T17:57:57.710Z,70.32
2019-03-05T18:03:05.314Z,70.91
2019-03-05T18:08:11.034Z,71.52
2019-03-05T18:13:16.414Z,71.37
2019-03-05T18:18:21.762Z,71.34
2019-03-05T18:23:27.102Z,71.47
2019-03-05T18:28:32.389Z,71.79
2019-03-05T18:33:37.700Z,72.98
2019-03-05T18:38:43.983Z,71.97
2019-03-05T18:43:49.220Z,72.67
2019-03-05T18:48:54.487Z,71.84
2019-03-05T18:54:01.686Z,73.21
2019-03-05T18:59:07.004Z,72.68
2019-03-05T19:04:12.953Z,73.21
2019-03-05T19:09:20.035Z,73.64
2019-03-05T19:14:25.358Z,73.31
2019-03-05T19:19:31.156Z,73.77
2019-03-05T19:24:36.735Z,73.85
2019-03-05T19:29:42.268Z,73.84
2019-03-05T19:34:47.488Z,73.87
2019-03-05T19:39:53.070Z,73.93
2019-03-05T19:44:58.408Z,73.94
2019-03-05T19:50:03.777Z,74.51
2019-03-05T19:55:10.964Z,74.70
2019-03-05T20:00:20.381Z,74.52
2019-03-05T20:05:25.953Z,74.36
2019-03-05T20:10:31.625Z,74.93
2019-03-05T20:15:36.959Z,75.56
2019-03-05T20:20:43.713Z,74.97
2019-03-05T20:25:49.228Z,75.85
2019-03-05T20:30:54.456Z,75.52
2019-03-05T20:35:59.764Z,75.95
2019-03-05T20:41:05.227Z,75.82
2019-03-05T20:46:17.036Z,75.94
2019-03-05T20:51:22.499Z,76.27
2019-03-05T20:56:27.882Z,76.80
2019-03-05T21:01:33.524Z,76.67
2019-03-05T21:06:39.234Z,77.01
2019-03-05T21:11:44.608Z,77.18
2019-03-05T21:16:49.976Z,78.15
2019-03-05T21:21:55.214Z,77.39
2019-03-05T21:27:01.025Z,77.26
2019-03-05T21:32:06.506Z,77.36
2019-03-05T21:37:11.869Z,77.71
2019-03-05T21:42:17.464Z,77.49
2019-03-05T21:47:22.693Z,77.90
2019-03-05T21:52:28.664Z,78.41
2019-03-05T21:57:35.422Z,78.93
2019-03-05T22:02:41.110Z,79.30
2019-03-05T22:07:46.652Z,80.30
2019-03-05T22:12:52.509Z,79.90
2019-03-05T22:17:57.813Z,80.45
2019-03-05T22:23:03.088Z,80.14
2019-03-05T22:28:08.427Z,80.54
2019-03-05T22:33:14.247Z,80.42
2019-03-05T22:38:19.611Z,80.22
2019-03-05T22:43:24.895Z,79.66
2019-03-05T22:48:30.322Z,79.65
2019-03-05T22:53:35.520Z,80.47
2019-03-05T22:58:40.807Z,80.47
2019-03-05T23:03:57.693Z,79.89
2019-03-05T23:09:07.785Z,80.31
2019-03-05T23:14:13.250Z,79.97
2019-03-05T23:19:18.953Z,79.83
2019-03-05T23:24:24.374Z,79.13
2019-03-05T23:29:47.656Z,80.10
2019-03-05T23:34:53.702Z,79.27
2019-03-05T23:39:59.752Z,79.83
2019-03-05T23:45:05.573Z,80.67
2019-03-05T23:50:11.350Z,80.50
2019-03-05T23:55:17.448Z,80.79
